Time;durP1;ratioP1;P1;durP2;ratioP2;P2;SDS_P1;SDS_P2;PMS_P1;PMS_P2;Temp;Humidity;BMP_temperature;BMP_pressure;BME280_temperature;BME280_humidity;BME280_pressure;Samples;Min_cycle;Max_cycle;Signal;HPM_P1;HPM_P2
2021/07/08 00:00:23;;;;;;;;;;;;;;;;;;2116742;28;1183;-90
2021/07/08 00:01:23;;;;;;;;;;;;;;;;;;2125770;27;1965;-88
2021/07/08 00:02:25;;;;;;;;;;;;;;;;;;2125810;27;787;-90
2021/07/08 00:03:25;;;;;;;;;;;;;;;;;;2116486;28;1273;-89
2021/07/08 00:04:27;;;;;;;;;;;;;;;;;;2108425;28;1278;-88
2021/07/08 00:05:27;;;;;;;;;;;;;;;;;;2116967;28;806;-89
2021/07/08 00:06:31;;;;;;;;;;;;;;;;;;2125767;27;893;-90
2021/07/08 00:07:31;;;;;;;;;;;;;;;;;;2125785;27;915;-90
2021/07/08 00:08:33;;;;;;;;;;;;;;;;;;2116558;28;1184;-90
2021/07/08 00:09:33;;;;;;;;;;;;;;;;;;2116771;28;798;-88
2021/07/08 00:10:38;;;;;;;;;;;;;;;;;;2125507;27;1335;-89
2021/07/08 00:11:38;;;;;;;;;;;;;;;;;;2125862;27;961;-89
2021/07/08 00:12:40;;;;;;;;;;;;;;;;;;2125775;27;952;-89
2021/07/08 00:13:41;;;;;;;;;;;;;;;;;;2116707;28;1581;-87
2021/07/08 00:14:44;;;;;;;;;;;;;;;;;;2116730;28;857;-88
2021/07/08 00:15:44;;;;;;;;;;;;;;;;;;2125601;27;1138;-83
2021/07/08 00:16:46;;;;;;;;;;;;;;;;;;2125577;27;810;-87
2021/07/08 00:17:46;;;;;;;;;;;;;;;;;;2125805;27;889;-87
2021/07/08 00:18:49;;;;;;;;;;;;;;;;;;2125712;27;786;-87
2021/07/08 00:19:49;;;;;;;;;;;;;;;;;;2125578;27;853;-88
2021/07/08 00:20:51;;;;;;;;;;;;;;;;;;2116562;28;1466;-88
2021/07/08 00:21:51;;;;;;;;;;;;;;;;;;2116607;28;1909;-84
2021/07/08 00:22:53;;;;;;;;;;;;;;;;;;2125735;27;877;-88
2021/07/08 00:23:53;;;;;;;;;;;;;;;;;;2125675;27;806;-88
2021/07/08 00:24:55;;;;;;;;;;;;;;;;;;2125609;27;897;-88
2021/07/08 00:25:56;;;;;;;;;;;;;;;;;;2125553;27;876;-88
2021/07/08 00:26:58;;;;;;;;;;;;;;;;;;2125566;27;956;-88
2021/07/08 00:27:58;;;;;;;;;;;;;;;;;;2125771;27;822;-88
2021/07/08 00:29:00;;;;;;;;;;;;;;;;;;2125646;27;1068;-88
2021/07/08 00:30:02;;;;;;;;;;;;;;;;;;2125470;27;1284;-82
2021/07/08 00:31:04;;;;;;;;;;;;;;;;;;2125659;27;794;-88
2021/07/08 00:32:05;;;;;;;;;;;;;;;;;;2125799;27;924;-92
2021/07/08 00:33:06;;;;;;;;;;;;;;;;;;2125727;27;830;-93
2021/07/08 00:34:07;;;;;;;;;;;;;;;;;;2125854;27;897;-93
2021/07/08 00:35:09;;;;;;;;;;;;;;;;;;2125570;27;1092;-93
2021/07/08 00:36:11;;;;;;;;;;;;;;;;;;2116593;28;1269;-92
2021/07/08 00:37:11;;;;;;;;;;;;;;;;;;2116685;28;846;-93
2021/07/08 00:38:13;;;;;;;;;;;;;;;;;;2116599;28;941;-93
2021/07/08 00:39:13;;;;;;;;;;;;;;;;;;2108010;28;1167;-91
2021/07/08 00:40:15;;;;;;;;;;;;;;;;;;2116569;28;1299;-92
2021/07/08 00:41:16;;;;;;;;;;;;;;;;;;2125463;27;894;-92
2021/07/08 00:42:18;;;;;;;;;;;;;;;;;;2125508;27;1906;-92
2021/07/08 00:43:18;;;;;;;;;;;;;;;;;;2125580;27;901;-92
2021/07/08 00:44:20;;;;;;;;;;;;;;;;;;2116470;28;1203;-91
2021/07/08 00:45:22;;;;;;;;;;;;;;;;;;2116485;28;806;-91
2021/07/08 00:46:24;;;;;;;;;;;;;;;;;;2125722;27;885;-88
2021/07/08 00:47:24;;;;;;;;;;;;;;;;;;2125440;27;841;-89
2021/07/08 00:48:26;;;;;;;;;;;;;;;;;;2125373;27;953;-85
2021/07/08 00:49:26;;;;;;;;;;;;;;;;;;2125410;27;858;-88
2021/07/08 00:50:29;;;;;;;;;;;;;;;;;;2125465;27;1260;-88
2021/07/08 00:51:30;;;;;;;;;;;;;;;;;;2116292;28;1175;-88
2021/07/08 00:52:32;;;;;;;;;;;;;;;;;;2116369;28;937;-88
2021/07/08 00:53:32;;;;;;;;;;;;;;;;;;2125165;27;861;-90
2021/07/08 00:54:34;;;;;;;;;;;;;;;;;;2125326;27;885;-88
2021/07/08 00:55:35;;;;;;;;;;;;;;;;;;2116294;28;1374;-87
2021/07/08 00:56:37;;;;;;;;;;;;;;;;;;2116317;28;1066;-88
2021/07/08 00:57:39;;;;;;;;;;;;;;;;;;2125181;28;1113;-88
2021/07/08 00:58:41;;;;;;;;;;;;;;;;;;2125419;28;1012;-88
2021/07/08 00:59:42;;;;;;;;;;;;;;;;;;2116257;28;1194;-88
2021/07/08 01:00:45;;;;;;;;;;;;;;;;;;2116325;28;1196;-88
2021/07/08 01:01:46;;;;;;;;;;;;;;;;;;2125379;28;1905;-89
2021/07/08 01:02:49;;;;;;;;;;;;;;;;;;2116308;28;1345;-88
2021/07/08 01:03:49;;;;;;;;;;;;;;;;;;2116771;28;1060;-89
2021/07/08 01:04:51;;;;;;;;;;;;;;;;;;2116282;28;1549;-90
2021/07/08 01:05:53;;;;;;;;;;;;;;;;;;2108001;28;881;-90
2021/07/08 01:06:55;;;;;;;;;;;;;;;;;;2107889;28;1344;-89
2021/07/08 01:07:56;;;;;;;;;;;;;;;;;;2116440;28;885;-89
2021/07/08 01:08:58;;;;;;;;;;;;;;;;;;2125448;28;956;-90
2021/07/08 01:09:58;;;;;;;;;;;;;;;;;;2125410;28;893;-88
2021/07/08 01:11:00;;;;;;;;;;;;;;;;;;2125299;28;1281;-89
2021/07/08 01:12:00;;;;;;;;;;;;;;;;;;2125473;28;956;-89
2021/07/08 01:13:02;;;;;;;;;;;;;;;;;;2116250;28;1231;-91
2021/07/08 01:14:02;;;;;;;;;;;;;;;;;;2107992;28;741;-91
2021/07/08 01:15:05;;;;;;;;;;;;;;;;;;2116373;28;877;-91
2021/07/08 01:16:08;;;;;;;;;;;;;;;;;;2125468;28;830;-89
2021/07/08 01:17:09;;;;;;;;;;;;;;;;;;2125554;28;882;-88
2021/07/08 01:18:11;;;;;;;;;;;;;;;;;;2125348;28;960;-82
2021/07/08 01:19:12;;;;;;;;;;;;;;;;;;2125340;28;941;-89
2021/07/08 01:20:14;;;;;;;;;;;;;;;;;;2125293;28;1248;-89
2021/07/08 01:21:23;;;;;;;;;;;;;;;;;;2125348;28;1115;-89
2021/07/08 01:22:25;;;;;;;;;;;;;;;;;;2125222;28;1983;-90
2021/07/08 01:23:25;;;;;;;;;;;;;;;;;;2116219;28;1336;-82
2021/07/08 01:24:27;;;;;;;;;;;;;;;;;;2116371;28;893;-81
2021/07/08 01:25:28;;;;;;;;;;;;;;;;;;2125368;28;854;-91
2021/07/08 01:26:30;;;;;;;;;;;;;;;;;;2116211;28;1183;-91
2021/07/08 01:27:31;;;;;;;;;;;;;;;;;;2116467;28;905;-92
2021/07/08 01:28:33;;;;;;;;;;;;;;;;;;2116122;28;1373;-91
2021/07/08 01:29:34;;;;;;;;;;;;;;;;;;2107793;28;1303;-92
2021/07/08 01:30:35;;;;;;;;;;;;;;;;;;2116227;28;1330;-92
2021/07/08 01:31:36;;;;;;;;;;;;;;;;;;2125372;28;794;-91
2021/07/08 01:32:37;;;;;;;;;;;;;;;;;;2116155;28;1154;-89
2021/07/08 01:33:38;;;;;;;;;;;;;;;;;;2107868;28;1188;-90
2021/07/08 01:34:39;;;;;;;;;;;;;;;;;;2116283;28;965;-90
2021/07/08 01:35:40;;;;;;;;;;;;;;;;;;2125255;28;842;-91
2021/07/08 01:36:43;;;;;;;;;;;;;;;;;;2125576;28;948;-91
2021/07/08 01:37:43;;;;;;;;;;;;;;;;;;2125222;28;925;-91
2021/07/08 01:38:45;;;;;;;;;;;;;;;;;;2125089;28;944;-91
2021/07/08 01:39:46;;;;;;;;;;;;;;;;;;2125362;28;924;-91
2021/07/08 01:40:48;;;;;;;;;;;;;;;;;;2116052;28;1410;-90
2021/07/08 01:41:48;;;;;;;;;;;;;;;;;;2116185;28;1898;-90
2021/07/08 01:42:50;;;;;;;;;;;;;;;;;;2125326;28;877;-90
2021/07/08 01:43:51;;;;;;;;;;;;;;;;;;2125450;28;868;-91
2021/07/08 01:44:52;;;;;;;;;;;;;;;;;;2125468;28;864;-86
2021/07/08 01:45:53;;;;;;;;;;;;;;;;;;2125294;28;939;-90
2021/07/08 01:46:54;;;;;;;;;;;;;;;;;;2116160;28;1166;-89
2021/07/08 01:47:55;;;;;;;;;;;;;;;;;;2107836;28;908;-89
2021/07/08 01:48:57;;;;;;;;;;;;;;;;;;2116307;28;880;-89
2021/07/08 01:49:58;;;;;;;;;;;;;;;;;;2125268;28;916;-89
2021/07/08 01:51:02;;;;;;;;;;;;;;;;;;2125458;28;1270;-89
2021/07/08 01:52:04;;;;;;;;;;;;;;;;;;2116112;28;881;-89
2021/07/08 01:53:06;;;;;;;;;;;;;;;;;;2116540;28;936;-89
2021/07/08 01:54:08;;;;;;;;;;;;;;;;;;2125265;28;909;-88
2021/07/08 01:55:10;;;;;;;;;;;;;;;;;;2125248;28;766;-89
2021/07/08 01:56:10;;;;;;;;;;;;;;;;;;2125496;28;1528;-89
2021/07/08 01:57:12;;;;;;;;;;;;;;;;;;2125136;28;1163;-88
2021/07/08 01:58:13;;;;;;;;;;;;;;;;;;2116099;28;957;-89
2021/07/08 01:59:14;;;;;;;;;;;;;;;;;;2107632;28;1333;-89
2021/07/08 02:00:15;;;;;;;;;;;;;;;;;;2116119;28;1307;-88
2021/07/08 02:01:17;;;;;;;;;;;;;;;;;;2125220;28;829;-88
2021/07/08 02:02:17;;;;;;;;;;;;;;;;;;2125116;28;1968;-86
2021/07/08 02:03:19;;;;;;;;;;;;;;;;;;2125087;28;1133;-92
2021/07/08 02:04:19;;;;;;;;;;;;;;;;;;2125284;27;980;-93
2021/07/08 02:05:21;;;;;;;;;;;;;;;;;;2125901;27;838;-92
2021/07/08 02:06:22;;;;;;;;;;;;;;;;;;2117637;28;1173;-92
2021/07/08 02:07:24;;;;;;;;;;;;;;;;;;2117801;28;849;-92
2021/07/08 02:08:25;;;;;;;;;;;;;;;;;;2126657;27;827;-92
2021/07/08 02:09:26;;;;;;;;;;;;;;;;;;2126327;27;1110;-94
2021/07/08 02:10:27;;;;;;;;;;;;;;;;;;2126417;27;1208;-93
2021/07/08 02:11:29;;;;;;;;;;;;;;;;;;2126454;27;884;-93
2021/07/08 02:12:29;;;;;;;;;;;;;;;;;;2126508;27;929;-94
2021/07/08 02:13:31;;;;;;;;;;;;;;;;;;2126509;27;857;-93
2021/07/08 02:14:31;;;;;;;;;;;;;;;;;;2117376;28;1193;-94
2021/07/08 02:15:33;;;;;;;;;;;;;;;;;;2117343;28;1047;-94
2021/07/08 02:16:34;;;;;;;;;;;;;;;;;;2126716;27;822;-94
2021/07/08 02:17:36;;;;;;;;;;;;;;;;;;2126763;27;833;-93
2021/07/08 02:18:37;;;;;;;;;;;;;;;;;;2127998;27;893;-90
2021/07/08 02:19:39;;;;;;;;;;;;;;;;;;2127556;27;860;-91
2021/07/08 02:20:40;;;;;;;;;;;;;;;;;;2127339;27;1197;-91
2021/07/08 02:21:41;;;;;;;;;;;;;;;;;;2126940;27;825;-92
2021/07/08 02:22:43;;;;;;;;;;;;;;;;;;2126393;27;1902;-92
2021/07/08 02:23:45;;;;;;;;;;;;;;;;;;2126610;27;913;-92
2021/07/08 02:24:45;;;;;;;;;;;;;;;;;;2126506;27;578;-90
2021/07/08 02:25:47;;;;;;;;;;;;;;;;;;2126540;27;925;-91
2021/07/08 02:26:47;;;;;;;;;;;;;;;;;;2126662;27;782;-90
2021/07/08 02:27:49;;;;;;;;;;;;;;;;;;2126593;27;976;-91
2021/07/08 02:28:49;;;;;;;;;;;;;;;;;;2117490;28;1214;-91
2021/07/08 02:29:51;;;;;;;;;;;;;;;;;;2117433;28;964;-91
2021/07/08 02:30:52;;;;;;;;;;;;;;;;;;2126561;27;1334;-91
2021/07/08 02:31:53;;;;;;;;;;;;;;;;;;2126548;27;1013;-92
2021/07/08 02:32:55;;;;;;;;;;;;;;;;;;2117424;28;1183;-92
2021/07/08 02:33:56;;;;;;;;;;;;;;;;;;2117652;28;838;-91
2021/07/08 02:34:57;;;;;;;;;;;;;;;;;;2126628;27;906;-91
2021/07/08 02:35:58;;;;;;;;;;;;;;;;;;2126780;27;917;-91
2021/07/08 02:36:59;;;;;;;;;;;;;;;;;;2117513;28;1174;-92
2021/07/08 02:38:02;;;;;;;;;;;;;;;;;;2117487;28;984;-93
2021/07/08 02:39:04;;;;;;;;;;;;;;;;;;2126476;27;909;-92
2021/07/08 02:40:07;;;;;;;;;;;;;;;;;;2117233;28;1224;-92
2021/07/08 02:41:08;;;;;;;;;;;;;;;;;;2117738;28;999;-92
2021/07/08 02:42:09;;;;;;;;;;;;;;;;;;2126673;27;1905;-92
2021/07/08 02:43:10;;;;;;;;;;;;;;;;;;2126899;27;826;-92
2021/07/08 02:44:11;;;;;;;;;;;;;;;;;;2117327;28;1170;-93
2021/07/08 02:45:13;;;;;;;;;;;;;;;;;;2117592;28;787;-93
2021/07/08 02:46:14;;;;;;;;;;;;;;;;;;2126478;27;940;-90
2021/07/08 02:47:15;;;;;;;;;;;;;;;;;;2126487;27;802;-92
2021/07/08 02:48:17;;;;;;;;;;;;;;;;;;2126652;27;802;-90
2021/07/08 02:49:18;;;;;;;;;;;;;;;;;;2126407;27;1111;-92
2021/07/08 02:50:20;;;;;;;;;;;;;;;;;;2126585;27;1204;-92
2021/07/08 02:51:21;;;;;;;;;;;;;;;;;;2126552;27;984;-91
2021/07/08 02:52:22;;;;;;;;;;;;;;;;;;2126437;27;862;-92
2021/07/08 02:53:24;;;;;;;;;;;;;;;;;;2126534;27;893;-92
2021/07/08 02:54:26;;;;;;;;;;;;;;;;;;2126600;27;862;-89
2021/07/08 02:55:27;;;;;;;;;;;;;;;;;;2117192;28;842;-93
2021/07/08 02:56:28;;;;;;;;;;;;;;;;;;2117461;28;870;-92
2021/07/08 02:57:29;;;;;;;;;;;;;;;;;;2126338;27;1110;-93
2021/07/08 02:58:30;;;;;;;;;;;;;;;;;;2126537;27;1056;-93
2021/07/08 02:59:31;;;;;;;;;;;;;;;;;;2126318;27;993;-92
2021/07/08 03:00:32;;;;;;;;;;;;;;;;;;2126218;27;1270;-93
2021/07/08 03:01:33;;;;;;;;;;;;;;;;;;2126228;27;956;-92
2021/07/08 03:02:34;;;;;;;;;;;;;;;;;;2126211;27;1922;-93
2021/07/08 03:03:35;;;;;;;;;;;;;;;;;;2126439;27;909;-94
2021/07/08 03:04:37;;;;;;;;;;;;;;;;;;2126372;27;928;-90
2021/07/08 03:05:37;;;;;;;;;;;;;;;;;;2126371;27;870;-91
2021/07/08 03:06:38;;;;;;;;;;;;;;;;;;2126463;27;1090;-91
2021/07/08 03:07:39;;;;;;;;;;;;;;;;;;2126248;27;795;-91
2021/07/08 03:08:42;;;;;;;;;;;;;;;;;;2126284;27;889;-91
2021/07/08 03:09:43;;;;;;;;;;;;;;;;;;2126395;27;488;-92
2021/07/08 03:10:44;;;;;;;;;;;;;;;;;;2126073;27;1227;-91
2021/07/08 03:11:45;;;;;;;;;;;;;;;;;;2126327;27;1092;-90
2021/07/08 03:12:47;;;;;;;;;;;;;;;;;;2126262;27;881;-84
2021/07/08 03:13:47;;;;;;;;;;;;;;;;;;2126170;27;1099;-90
2021/07/08 03:14:49;;;;;;;;;;;;;;;;;;2126198;27;877;-91
2021/07/08 03:15:49;;;;;;;;;;;;;;;;;;2125955;27;661;-92
2021/07/08 03:16:51;;;;;;;;;;;;;;;;;;2126065;27;825;-92
2021/07/08 03:17:52;;;;;;;;;;;;;;;;;;2126195;27;972;-90
2021/07/08 03:18:53;;;;;;;;;;;;;;;;;;2126108;27;1067;-89
2021/07/08 03:19:53;;;;;;;;;;;;;;;;;;2126161;27;830;-90
2021/07/08 03:20:55;;;;;;;;;;;;;;;;;;2126133;27;1335;-90
2021/07/08 03:21:56;;;;;;;;;;;;;;;;;;2126049;27;957;-93
2021/07/08 03:22:57;;;;;;;;;;;;;;;;;;2126098;27;1977;-92
2021/07/08 03:23:59;;;;;;;;;;;;;;;;;;2126200;27;1115;-92
2021/07/08 03:25:01;;;;;;;;;;;;;;;;;;2126113;27;830;-93
2021/07/08 03:26:01;;;;;;;;;;;;;;;;;;2126182;27;783;-91
2021/07/08 03:27:03;;;;;;;;;;;;;;;;;;2116927;28;1452;-91
2021/07/08 03:28:04;;;;;;;;;;;;;;;;;;2108653;28;1194;-90
2021/07/08 03:29:05;;;;;;;;;;;;;;;;;;2117060;28;600;-91
2021/07/08 03:30:07;;;;;;;;;;;;;;;;;;2125969;27;1192;-90
2021/07/08 03:31:09;;;;;;;;;;;;;;;;;;2117216;28;1218;-90
2021/07/08 03:32:10;;;;;;;;;;;;;;;;;;2117080;28;941;-90
2021/07/08 03:33:11;;;;;;;;;;;;;;;;;;2125905;27;858;-93
2021/07/08 03:34:12;;;;;;;;;;;;;;;;;;2125888;27;977;-92
2021/07/08 03:35:13;;;;;;;;;;;;;;;;;;2117079;28;1412;-92
2021/07/08 03:36:14;;;;;;;;;;;;;;;;;;2116954;28;984;-91
2021/07/08 03:37:15;;;;;;;;;;;;;;;;;;2126144;27;845;-92
2021/07/08 03:38:16;;;;;;;;;;;;;;;;;;2126143;27;880;-91
2021/07/08 03:39:18;;;;;;;;;;;;;;;;;;2116985;28;1170;-90
2021/07/08 03:40:21;;;;;;;;;;;;;;;;;;2117025;28;1219;-90
2021/07/08 03:41:21;;;;;;;;;;;;;;;;;;2126267;27;856;-90
2021/07/08 03:42:23;;;;;;;;;;;;;;;;;;2126079;27;929;-91
2021/07/08 03:43:23;;;;;;;;;;;;;;;;;;2126089;27;1893;-89
2021/07/08 03:44:25;;;;;;;;;;;;;;;;;;2125911;27;1068;-88
2021/07/08 03:45:26;;;;;;;;;;;;;;;;;;2125855;27;917;-90
2021/07/08 03:46:27;;;;;;;;;;;;;;;;;;2126057;27;1075;-83
2021/07/08 03:47:28;;;;;;;;;;;;;;;;;;2125859;27;929;-90
2021/07/08 03:48:29;;;;;;;;;;;;;;;;;;2125889;27;980;-89
2021/07/08 03:49:30;;;;;;;;;;;;;;;;;;2125918;27;1114;-91
2021/07/08 03:50:31;;;;;;;;;;;;;;;;;;2126001;27;1349;-90
2021/07/08 03:51:32;;;;;;;;;;;;;;;;;;2125885;27;893;-90
2021/07/08 03:52:33;;;;;;;;;;;;;;;;;;2125921;27;845;-91
2021/07/08 03:53:34;;;;;;;;;;;;;;;;;;2125891;27;876;-91
2021/07/08 03:54:36;;;;;;;;;;;;;;;;;;2125985;27;948;-90
2021/07/08 03:55:38;;;;;;;;;;;;;;;;;;2126212;27;1092;-88
2021/07/08 03:56:38;;;;;;;;;;;;;;;;;;2125967;27;893;-93
2021/07/08 03:57:52;;;;;;;;;;;;;;;;;;2125815;27;1079;-89
2021/07/08 03:58:53;;;;;;;;;;;;;;;;;;2126010;27;1068;-91
2021/07/08 03:59:54;;;;;;;;;;;;;;;;;;2126126;27;861;-88
2021/07/08 04:00:55;;;;;;;;;;;;;;;;;;2116919;28;1490;-88
2021/07/08 04:01:56;;;;;;;;;;;;;;;;;;2108482;28;1350;-89
2021/07/08 04:02:59;;;;;;;;;;;;;;;;;;2116769;28;1918;-86
2021/07/08 04:04:00;;;;;;;;;;;;;;;;;;2125843;27;849;-88
2021/07/08 04:05:01;;;;;;;;;;;;;;;;;;2125911;27;1052;-87
2021/07/08 04:06:02;;;;;;;;;;;;;;;;;;2125939;27;845;-88
2021/07/08 04:07:03;;;;;;;;;;;;;;;;;;2125738;27;783;-88
2021/07/08 04:08:05;;;;;;;;;;;;;;;;;;2116526;28;1364;-88
2021/07/08 04:09:06;;;;;;;;;;;;;;;;;;2116823;28;893;-88
2021/07/08 04:10:09;;;;;;;;;;;;;;;;;;2116607;28;1397;-87
2021/07/08 04:11:10;;;;;;;;;;;;;;;;;;2108363;28;1178;-88
2021/07/08 04:12:11;;;;;;;;;;;;;;;;;;2116956;28;884;-89
2021/07/08 04:13:13;;;;;;;;;;;;;;;;;;2115969;27;1819;-88
2021/07/08 04:14:14;;;;;;;;;;;;;;;;;;2108342;28;1194;-88
2021/07/08 04:15:16;;;;;;;;;;;;;;;;;;2108149;28;1344;-89
2021/07/08 04:16:17;;;;;;;;;;;;;;;;;;2116776;28;798;-87
2021/07/08 04:17:18;;;;;;;;;;;;;;;;;;2125739;27;849;-88
2021/07/08 04:18:20;;;;;;;;;;;;;;;;;;2125742;27;1098;-89
2021/07/08 04:19:20;;;;;;;;;;;;;;;;;;2125707;27;1056;-88
2021/07/08 04:20:22;;;;;;;;;;;;;;;;;;2116599;28;1471;-88
2021/07/08 04:21:22;;;;;;;;;;;;;;;;;;2117063;28;882;-88
2021/07/08 04:22:24;;;;;;;;;;;;;;;;;;2125647;27;1103;-87
2021/07/08 04:23:25;;;;;;;;;;;;;;;;;;2125551;27;1910;-87
2021/07/08 04:24:27;;;;;;;;;;;;;;;;;;2125650;27;945;-87
2021/07/08 04:25:28;;;;;;;;;;;;;;;;;;2125373;27;845;-87
2021/07/08 04:26:30;;;;;;;;;;;;;;;;;;2116248;28;878;-86
2021/07/08 04:27:31;;;;;;;;;;;;;;;;;;2116825;28;893;-86
2021/07/08 04:28:33;;;;;;;;;;;;;;;;;;2116112;28;1293;-87
2021/07/08 04:29:33;;;;;;;;;;;;;;;;;;2116584;28;826;-90
2021/07/08 04:30:35;;;;;;;;;;;;;;;;;;2125552;27;1299;-88
2021/07/08 04:31:36;;;;;;;;;;;;;;;;;;2125696;27;825;-88
2021/07/08 04:32:38;;;;;;;;;;;;;;;;;;2116516;28;1526;-90
2021/07/08 04:33:39;;;;;;;;;;;;;;;;;;2116577;28;886;-87
2021/07/08 04:34:41;;;;;;;;;;;;;;;;;;2125836;27;790;-88
2021/07/08 04:35:42;;;;;;;;;;;;;;;;;;2125623;27;921;-87
2021/07/08 04:36:43;;;;;;;;;;;;;;;;;;2116554;28;1223;-88
2021/07/08 04:37:44;;;;;;;;;;;;;;;;;;2116468;28;814;-88
2021/07/08 04:38:48;;;;;;;;;;;;;;;;;;2125635;27;865;-88
2021/07/08 04:39:49;;;;;;;;;;;;;;;;;;2125538;27;846;-88
2021/07/08 04:40:51;;;;;;;;;;;;;;;;;;2125351;27;1330;-87
2021/07/08 04:41:52;;;;;;;;;;;;;;;;;;2116501;28;1313;-88
2021/07/08 04:42:53;;;;;;;;;;;;;;;;;;2116528;28;1977;-89
2021/07/08 04:43:54;;;;;;;;;;;;;;;;;;2125227;27;902;-88
2021/07/08 04:44:55;;;;;;;;;;;;;;;;;;2116318;28;1352;-86
2021/07/08 04:45:56;;;;;;;;;;;;;;;;;;2116280;28;1127;-86
2021/07/08 04:46:57;;;;;;;;;;;;;;;;;;2125004;27;1220;-85
2021/07/08 04:47:58;;;;;;;;;;;;;;;;;;2125185;27;1303;-85
2021/07/08 04:49:00;;;;;;;;;;;;;;;;;;2125154;27;1291;-86
2021/07/08 04:50:00;;;;;;;;;;;;;;;;;;2124940;27;1263;-84
2021/07/08 04:51:02;;;;;;;;;;;;;;;;;;2116244;28;1388;-86
2021/07/08 04:52:03;;;;;;;;;;;;;;;;;;2116384;28;933;-87
2021/07/08 04:53:05;;;;;;;;;;;;;;;;;;2116013;28;1294;-84
2021/07/08 04:54:05;;;;;;;;;;;;;;;;;;2115836;28;1064;-84
2021/07/08 04:55:07;;;;;;;;;;;;;;;;;;2115662;28;1355;-85
2021/07/08 04:56:09;;;;;;;;;;;;;;;;;;2115976;28;956;-85
2021/07/08 04:57:11;;;;;;;;;;;;;;;;;;2115540;28;1297;-85
2021/07/08 04:58:12;;;;;;;;;;;;;;;;;;2107293;28;1303;-84
2021/07/08 04:59:13;;;;;;;;;;;;;;;;;;2115623;28;1324;-84
2021/07/08 05:00:15;;;;;;;;;;;;;;;;;;2115772;28;1354;-84
2021/07/08 05:01:16;;;;;;;;;;;;;;;;;;2115459;28;1290;-83
2021/07/08 05:02:17;;;;;;;;;;;;;;;;;;2115595;28;933;-84
2021/07/08 05:03:18;;;;;;;;;;;;;;;;;;2124881;28;1910;-84
2021/07/08 05:04:19;;;;;;;;;;;;;;;;;;2124959;28;759;-85
2021/07/08 05:05:21;;;;;;;;;;;;;;;;;;2125207;28;849;-86
2021/07/08 05:06:22;;;;;;;;;;;;;;;;;;2115420;28;950;-83
2021/07/08 05:07:23;;;;;;;;;;;;;;;;;;2106982;28;1425;-83
2021/07/08 05:08:24;;;;;;;;;;;;;;;;;;2106977;28;1379;-83
2021/07/08 05:09:25;;;;;;;;;;;;;;;;;;2106879;28;1153;-83
2021/07/08 05:10:26;;;;;;;;;;;;;;;;;;2106867;28;1224;-83
2021/07/08 05:11:29;;;;;;;;;;;;;;;;;;2115357;28;834;-83
2021/07/08 05:12:29;;;;;;;;;;;;;;;;;;2115370;28;1216;-82
2021/07/08 05:13:31;;;;;;;;;;;;;;;;;;2115579;28;886;-83
2021/07/08 05:14:31;;;;;;;;;;;;;;;;;;2124735;28;874;-83
2021/07/08 05:15:35;;;;;;;;;;;;;;;;;;2124470;28;921;-82
2021/07/08 05:16:35;;;;;;;;;;;;;;;;;;2115360;28;974;-83
2021/07/08 05:17:37;;;;;;;;;;;;;;;;;;2107000;28;1379;-80
2021/07/08 05:18:37;;;;;;;;;;;;;;;;;;2115401;28;960;-80
2021/07/08 05:19:39;;;;;;;;;;;;;;;;;;2124498;28;952;-83
2021/07/08 05:20:40;;;;;;;;;;;;;;;;;;2124491;28;1223;-83
2021/07/08 05:21:46;;;;;;;;;;;;;;;;;;2124601;28;944;-82
2021/07/08 05:22:47;;;;;;;;;;;;;;;;;;2115482;28;1540;-83
2021/07/08 05:23:51;;;;;;;;;;;;;;;;;;2115482;28;1984;-80
2021/07/08 05:24:52;;;;;;;;;;;;;;;;;;2124522;28;779;-86
2021/07/08 05:25:54;;;;;;;;;;;;;;;;;;2115963;28;1382;-86
2021/07/08 05:26:56;;;;;;;;;;;;;;;;;;2115547;28;1182;-83
2021/07/08 05:27:57;;;;;;;;;;;;;;;;;;2107732;28;1291;-95
2021/07/08 05:28:58;;;;;;;;;;;;;;;;;;2115661;28;1240;-81
2021/07/08 05:30:00;;;;;;;;;;;;;;;;;;2115272;28;920;-82
2021/07/08 05:31:00;;;;;;;;;;;;;;;;;;2124486;28;924;-83
2021/07/08 05:32:02;;;;;;;;;;;;;;;;;;2124587;28;1048;-85
2021/07/08 05:33:03;;;;;;;;;;;;;;;;;;2115434;28;1293;-82
2021/07/08 05:34:04;;;;;;;;;;;;;;;;;;2115357;28;793;-81
2021/07/08 05:35:05;;;;;;;;;;;;;;;;;;2124204;28;865;-82
2021/07/08 05:36:07;;;;;;;;;;;;;;;;;;2115225;28;1301;-82
2021/07/08 05:37:07;;;;;;;;;;;;;;;;;;2106823;28;1351;-82
2021/07/08 05:38:09;;;;;;;;;;;;;;;;;;2115375;28;794;-82
2021/07/08 05:39:10;;;;;;;;;;;;;;;;;;2115388;28;1209;-82
2021/07/08 05:40:11;;;;;;;;;;;;;;;;;;2115669;28;1236;-82
2021/07/08 05:41:12;;;;;;;;;;;;;;;;;;2108596;28;1206;-81
2021/07/08 05:42:15;;;;;;;;;;;;;;;;;;2117068;28;1182;-82
2021/07/08 05:43:16;;;;;;;;;;;;;;;;;;2117169;28;1897;-82
2021/07/08 05:44:17;;;;;;;;;;;;;;;;;;2116973;28;1235;-82
2021/07/08 05:45:19;;;;;;;;;;;;;;;;;;2108349;28;1162;-82
2021/07/08 05:46:22;;;;;;;;;;;;;;;;;;2108433;28;965;-81
2021/07/08 05:47:22;;;;;;;;;;;;;;;;;;2108532;28;944;-82
2021/07/08 05:48:24;;;;;;;;;;;;;;;;;;2116933;28;897;-81
2021/07/08 05:49:24;;;;;;;;;;;;;;;;;;2116619;28;1293;-81
2021/07/08 05:50:26;;;;;;;;;;;;;;;;;;2116573;28;1327;-82
2021/07/08 05:51:27;;;;;;;;;;;;;;;;;;2116896;28;967;-82
2021/07/08 05:52:29;;;;;;;;;;;;;;;;;;2126019;27;876;-82
2021/07/08 05:53:29;;;;;;;;;;;;;;;;;;2116853;28;1163;-81
2021/07/08 05:54:31;;;;;;;;;;;;;;;;;;2108302;28;1172;-82
2021/07/08 05:55:31;;;;;;;;;;;;;;;;;;2116864;28;968;-82
2021/07/08 05:56:33;;;;;;;;;;;;;;;;;;2116909;28;893;-81
2021/07/08 05:57:35;;;;;;;;;;;;;;;;;;2125698;27;1055;-82
2021/07/08 05:58:37;;;;;;;;;;;;;;;;;;2125969;27;826;-82
2021/07/08 05:59:37;;;;;;;;;;;;;;;;;;2116568;28;1265;-82
2021/07/08 06:00:39;;;;;;;;;;;;;;;;;;2116847;28;1235;-83
2021/07/08 06:01:39;;;;;;;;;;;;;;;;;;2125836;27;864;-82
2021/07/08 06:02:41;;;;;;;;;;;;;;;;;;2116813;28;1320;-83
2021/07/08 06:03:41;;;;;;;;;;;;;;;;;;2116808;28;1886;-82
2021/07/08 06:04:43;;;;;;;;;;;;;;;;;;2116718;28;1211;-83
2021/07/08 06:05:44;;;;;;;;;;;;;;;;;;2108298;28;1394;-82
2021/07/08 06:06:46;;;;;;;;;;;;;;;;;;2108468;28;814;-82
2021/07/08 06:07:46;;;;;;;;;;;;;;;;;;2108223;28;1513;-83
2021/07/08 06:08:48;;;;;;;;;;;;;;;;;;2108458;28;889;-83
2021/07/08 06:09:48;;;;;;;;;;;;;;;;;;2117339;28;953;-83
2021/07/08 06:10:50;;;;;;;;;;;;;;;;;;2117183;28;1283;-82
2021/07/08 06:11:50;;;;;;;;;;;;;;;;;;2117374;28;799;-83
2021/07/08 06:12:54;;;;;;;;;;;;;;;;;;2112923;28;1224;-82
2021/07/08 06:13:54;;;;;;;;;;;;;;;;;;2116760;28;870;-82
2021/07/08 06:14:55;;;;;;;;;;;;;;;;;;2125403;27;1017;-82
2021/07/08 06:15:56;;;;;;;;;;;;;;;;;;2125464;27;941;-83
2021/07/08 06:16:57;;;;;;;;;;;;;;;;;;2116414;28;1191;-82
2021/07/08 06:17:58;;;;;;;;;;;;;;;;;;2116491;28;790;-82
2021/07/08 06:18:59;;;;;;;;;;;;;;;;;;2125132;27;1072;-83
2021/07/08 06:20:01;;;;;;;;;;;;;;;;;;2116359;28;1502;-82
2021/07/08 06:21:01;;;;;;;;;;;;;;;;;;2108159;28;1301;-82
2021/07/08 06:22:03;;;;;;;;;;;;;;;;;;2116170;28;1090;-82
2021/07/08 06:23:04;;;;;;;;;;;;;;;;;;2125406;27;889;-82
2021/07/08 06:24:07;;;;;;;;;;;;;;;;;;2125477;27;1976;-82
2021/07/08 06:25:08;;;;;;;;;;;;;;;;;;2116351;28;1368;-82
2021/07/08 06:26:10;;;;;;;;;;;;;;;;;;2116417;28;951;-82
2021/07/08 06:27:11;;;;;;;;;;;;;;;;;;2116391;28;1283;-82
2021/07/08 06:28:14;;;;;;;;;;;;;;;;;;2116546;28;853;-82
2021/07/08 06:29:14;;;;;;;;;;;;;;;;;;2125428;27;782;-82
2021/07/08 06:30:16;;;;;;;;;;;;;;;;;;2125597;27;1267;-82
2021/07/08 06:31:17;;;;;;;;;;;;;;;;;;2125567;27;806;-82
2021/07/08 06:32:18;;;;;;;;;;;;;;;;;;2116401;28;1214;-82
2021/07/08 06:33:19;;;;;;;;;;;;;;;;;;2116449;28;965;-82
2021/07/08 06:34:21;;;;;;;;;;;;;;;;;;2125613;27;925;-83
2021/07/08 06:35:21;;;;;;;;;;;;;;;;;;2125511;27;767;-82
2021/07/08 06:36:22;;;;;;;;;;;;;;;;;;2116346;28;1020;-82
2021/07/08 06:37:23;;;;;;;;;;;;;;;;;;2116552;28;999;-82
2021/07/08 06:38:24;;;;;;;;;;;;;;;;;;2116300;28;1323;-82
2021/07/08 06:39:25;;;;;;;;;;;;;;;;;;2116436;27;1057;-82
2021/07/08 06:40:27;;;;;;;;;;;;;;;;;;2125425;27;1164;-82
2021/07/08 06:41:27;;;;;;;;;;;;;;;;;;2116282;28;1327;-82
2021/07/08 06:42:29;;;;;;;;;;;;;;;;;;2116423;28;901;-82
2021/07/08 06:43:30;;;;;;;;;;;;;;;;;;2125512;27;932;-82
2021/07/08 06:44:32;;;;;;;;;;;;;;;;;;2125451;27;1906;-82
2021/07/08 06:45:36;;;;;;;;;;;;;;;;;;2125389;27;759;-82
2021/07/08 06:46:38;;;;;;;;;;;;;;;;;;2116182;28;1330;-82
2021/07/08 06:47:42;;;;;;;;;;;;;;;;;;2108014;28;1356;-82
2021/07/08 06:48:44;;;;;;;;;;;;;;;;;;2108269;28;1211;-82
2021/07/08 06:49:44;;;;;;;;;;;;;;;;;;2116424;27;992;-82
2021/07/08 06:50:46;;;;;;;;;;;;;;;;;;2115940;28;1577;-82
2021/07/08 06:51:47;;;;;;;;;;;;;;;;;;2116198;28;786;-82
2021/07/08 06:52:49;;;;;;;;;;;;;;;;;;2116183;28;1268;-82
2021/07/08 06:53:50;;;;;;;;;;;;;;;;;;2116260;28;897;-83
2021/07/08 06:54:52;;;;;;;;;;;;;;;;;;2116271;28;1304;-82
2021/07/08 06:55:53;;;;;;;;;;;;;;;;;;2107785;28;1169;-82
2021/07/08 06:56:54;;;;;;;;;;;;;;;;;;2116217;28;822;-82
2021/07/08 06:57:55;;;;;;;;;;;;;;;;;;2125167;27;1070;-82
2021/07/08 06:58:57;;;;;;;;;;;;;;;;;;2125205;27;846;-82
2021/07/08 06:59:59;;;;;;;;;;;;;;;;;;2125274;27;917;-82
2021/07/08 07:00:59;;;;;;;;;;;;;;;;;;2116008;28;1323;-83
2021/07/08 07:02:01;;;;;;;;;;;;;;;;;;2116318;28;834;-82
2021/07/08 07:03:01;;;;;;;;;;;;;;;;;;2125329;27;810;-84
2021/07/08 07:04:03;;;;;;;;;;;;;;;;;;2116061;28;1972;-83
2021/07/08 07:05:04;;;;;;;;;;;;;;;;;;2116223;28;901;-82
2021/07/08 07:06:05;;;;;;;;;;;;;;;;;;2125282;27;825;-82
2021/07/08 07:07:06;;;;;;;;;;;;;;;;;;2116063;28;1170;-83
2021/07/08 07:08:08;;;;;;;;;;;;;;;;;;2116152;28;933;-82
2021/07/08 07:09:08;;;;;;;;;;;;;;;;;;2125235;27;775;-82
2021/07/08 07:10:11;;;;;;;;;;;;;;;;;;2115998;28;1229;-82